sensor_id;sensor_type;location;lat;lon;timestamp;P1;durP1;ratioP1;P2;durP2;ratioP2
18217;SDS011;9234;49.344;11.120;2023-05-07T00:01:39;7.65;;;2.88;;
18217;SDS011;9234;49.344;11.120;2023-05-07T00:04:07;4.38;;;3.08;;
18217;SDS011;9234;49.344;11.120;2023-05-07T00:06:38;3.33;;;2.90;;
18217;SDS011;9234;49.344;11.120;2023-05-07T00:09:07;7.68;;;2.80;;
18217;SDS011;9234;49.344;11.120;2023-05-07T00:11:35;2.97;;;2.65;;
18217;SDS011;9234;49.344;11.120;2023-05-07T00:14:03;3.95;;;3.08;;
18217;SDS011;9234;49.344;11.120;2023-05-07T00:16:31;5.50;;;3.08;;
18217;SDS011;9234;49.344;11.120;2023-05-07T00:19:00;5.38;;;3.20;;
18217;SDS011;9234;49.344;11.120;2023-05-07T00:21:28;3.47;;;2.40;;
18217;SDS011;9234;49.344;11.120;2023-05-07T00:23:58;3.30;;;3.00;;
18217;SDS011;9234;49.344;11.120;2023-05-07T00:26:26;5.60;;;3.63;;
18217;SDS011;9234;49.344;11.120;2023-05-07T00:28:55;4.90;;;3.45;;
18217;SDS011;9234;49.344;11.120;2023-05-07T00:31:23;7.35;;;3.00;;
18217;SDS011;9234;49.344;11.120;2023-05-07T00:33:51;4.43;;;3.13;;
18217;SDS011;9234;49.344;11.120;2023-05-07T00:36:19;5.30;;;2.83;;
18217;SDS011;9234;49.344;11.120;2023-05-07T00:38:47;5.05;;;3.20;;
18217;SDS011;9234;49.344;11.120;2023-05-07T00:41:17;3.47;;;3.17;;
18217;SDS011;9234;49.344;11.120;2023-05-07T00:43:46;5.45;;;3.15;;
18217;SDS011;9234;49.344;11.120;2023-05-07T00:46:14;6.43;;;3.22;;
18217;SDS011;9234;49.344;11.120;2023-05-07T00:48:43;4.75;;;3.38;;
18217;SDS011;9234;49.344;11.120;2023-05-07T00:51:12;3.83;;;2.60;;
18217;SDS011;9234;49.344;11.120;2023-05-07T00:53:41;4.57;;;3.33;;
18217;SDS011;9234;49.344;11.120;2023-05-07T00:56:10;3.38;;;3.08;;
18217;SDS011;9234;49.344;11.120;2023-05-07T00:58:41;4.30;;;3.10;;
18217;SDS011;9234;49.344;11.120;2023-05-07T01:01:09;3.08;;;2.78;;
18217;SDS011;9234;49.344;11.120;2023-05-07T01:03:37;4.82;;;2.83;;
18217;SDS011;9234;49.344;11.120;2023-05-07T01:06:06;3.47;;;2.78;;
18217;SDS011;9234;49.344;11.120;2023-05-07T01:08:39;3.20;;;2.90;;
18217;SDS011;9234;49.344;11.120;2023-05-07T01:11:09;3.97;;;3.10;;
18217;SDS011;9234;49.344;11.120;2023-05-07T01:13:38;3.45;;;3.13;;
18217;SDS011;9234;49.344;11.120;2023-05-07T01:16:08;3.88;;;2.63;;
18217;SDS011;9234;49.344;11.120;2023-05-07T01:18:38;7.53;;;3.13;;
18217;SDS011;9234;49.344;11.120;2023-05-07T01:21:06;3.90;;;3.40;;
18217;SDS011;9234;49.344;11.120;2023-05-07T01:23:39;6.07;;;3.08;;
18217;SDS011;9234;49.344;11.120;2023-05-07T01:26:08;4.00;;;3.15;;
18217;SDS011;9234;49.344;11.120;2023-05-07T01:28:37;7.05;;;3.67;;
18217;SDS011;9234;49.344;11.120;2023-05-07T01:31:05;5.78;;;2.90;;
18217;SDS011;9234;49.344;11.120;2023-05-07T01:33:36;5.32;;;3.15;;
18217;SDS011;9234;49.344;11.120;2023-05-07T01:36:08;6.22;;;3.60;;
18217;SDS011;9234;49.344;11.120;2023-05-07T01:38:40;5.57;;;3.53;;
18217;SDS011;9234;49.344;11.120;2023-05-07T01:41:09;4.75;;;2.92;;
18217;SDS011;9234;49.344;11.120;2023-05-07T01:43:39;4.18;;;3.17;;
18217;SDS011;9234;49.344;11.120;2023-05-07T01:46:08;3.17;;;2.55;;
18217;SDS011;9234;49.344;11.120;2023-05-07T01:48:38;3.03;;;2.63;;
18217;SDS011;9234;49.344;11.120;2023-05-07T01:51:06;2.30;;;2.10;;
18217;SDS011;9234;49.344;11.120;2023-05-07T01:53:36;3.63;;;2.67;;
18217;SDS011;9234;49.344;11.120;2023-05-07T01:56:06;5.47;;;3.03;;
18217;SDS011;9234;49.344;11.120;2023-05-07T01:58:37;4.35;;;2.45;;
18217;SDS011;9234;49.344;11.120;2023-05-07T02:01:06;3.35;;;2.35;;
18217;SDS011;9234;49.344;11.120;2023-05-07T02:03:35;3.10;;;2.72;;
18217;SDS011;9234;49.344;11.120;2023-05-07T02:06:11;3.03;;;2.83;;
18217;SDS011;9234;49.344;11.120;2023-05-07T02:08:39;4.93;;;2.85;;
18217;SDS011;9234;49.344;11.120;2023-05-07T02:11:10;3.47;;;2.55;;
18217;SDS011;9234;49.344;11.120;2023-05-07T02:13:38;3.55;;;2.88;;
18217;SDS011;9234;49.344;11.120;2023-05-07T02:16:06;3.35;;;3.05;;
18217;SDS011;9234;49.344;11.120;2023-05-07T02:18:34;3.70;;;2.90;;
18217;SDS011;9234;49.344;11.120;2023-05-07T02:21:03;5.35;;;3.00;;
18217;SDS011;9234;49.344;11.120;2023-05-07T02:23:31;3.55;;;3.15;;
18217;SDS011;9234;49.344;11.120;2023-05-07T02:26:00;3.90;;;3.28;;
18217;SDS011;9234;49.344;11.120;2023-05-07T02:28:29;5.53;;;3.60;;
18217;SDS011;9234;49.344;11.120;2023-05-07T02:31:02;4.35;;;3.60;;
18217;SDS011;9234;49.344;11.120;2023-05-07T02:33:32;4.70;;;3.17;;
18217;SDS011;9234;49.344;11.120;2023-05-07T02:36:06;5.85;;;3.45;;
18217;SDS011;9234;49.344;11.120;2023-05-07T02:38:40;3.15;;;2.70;;
18217;SDS011;9234;49.344;11.120;2023-05-07T02:41:09;7.43;;;3.38;;
18217;SDS011;9234;49.344;11.120;2023-05-07T02:43:38;4.28;;;3.25;;
18217;SDS011;9234;49.344;11.120;2023-05-07T02:46:07;3.28;;;2.72;;
18217;SDS011;9234;49.344;11.120;2023-05-07T02:48:40;3.40;;;2.95;;
18217;SDS011;9234;49.344;11.120;2023-05-07T02:51:09;2.80;;;2.57;;
18217;SDS011;9234;49.344;11.120;2023-05-07T02:53:39;4.70;;;2.33;;
18217;SDS011;9234;49.344;11.120;2023-05-07T02:56:08;5.05;;;2.65;;
18217;SDS011;9234;49.344;11.120;2023-05-07T02:58:36;6.95;;;3.22;;
18217;SDS011;9234;49.344;11.120;2023-05-07T03:01:06;3.58;;;3.03;;
18217;SDS011;9234;49.344;11.120;2023-05-07T03:03:51;3.40;;;2.65;;
18217;SDS011;9234;49.344;11.120;2023-05-07T03:06:20;3.08;;;2.78;;
18217;SDS011;9234;49.344;11.120;2023-05-07T03:08:48;3.97;;;3.05;;
18217;SDS011;9234;49.344;11.120;2023-05-07T03:11:16;4.40;;;2.50;;
18217;SDS011;9234;49.344;11.120;2023-05-07T03:13:46;4.07;;;3.17;;
18217;SDS011;9234;49.344;11.120;2023-05-07T03:16:17;2.92;;;2.72;;
18217;SDS011;9234;49.344;11.120;2023-05-07T03:18:45;5.05;;;3.03;;
18217;SDS011;9234;49.344;11.120;2023-05-07T03:21:13;3.63;;;2.90;;
18217;SDS011;9234;49.344;11.120;2023-05-07T03:23:42;4.57;;;3.00;;
18217;SDS011;9234;49.344;11.120;2023-05-07T03:26:10;4.55;;;2.97;;
18217;SDS011;9234;49.344;11.120;2023-05-07T03:28:38;5.53;;;2.90;;
18217;SDS011;9234;49.344;11.120;2023-05-07T03:31:12;4.10;;;2.92;;
18217;SDS011;9234;49.344;11.120;2023-05-07T03:33:49;3.83;;;2.95;;
18217;SDS011;9234;49.344;11.120;2023-05-07T03:36:19;4.95;;;3.47;;
18217;SDS011;9234;49.344;11.120;2023-05-07T03:38:48;4.07;;;3.13;;
18217;SDS011;9234;49.344;11.120;2023-05-07T03:41:19;4.15;;;2.97;;
18217;SDS011;9234;49.344;11.120;2023-05-07T03:43:48;3.20;;;2.90;;
18217;SDS011;9234;49.344;11.120;2023-05-07T03:46:17;5.63;;;3.42;;
18217;SDS011;9234;49.344;11.120;2023-05-07T03:48:46;5.90;;;3.05;;
18217;SDS011;9234;49.344;11.120;2023-05-07T03:51:15;5.47;;;3.50;;
18217;SDS011;9234;49.344;11.120;2023-05-07T03:53:43;3.53;;;3.22;;
18217;SDS011;9234;49.344;11.120;2023-05-07T03:56:11;4.18;;;3.28;;
18217;SDS011;9234;49.344;11.120;2023-05-07T03:58:40;3.67;;;3.38;;
18217;SDS011;9234;49.344;11.120;2023-05-07T04:01:10;3.20;;;2.90;;
18217;SDS011;9234;49.344;11.120;2023-05-07T04:03:40;4.60;;;3.10;;
18217;SDS011;9234;49.344;11.120;2023-05-07T04:06:08;6.03;;;3.87;;
18217;SDS011;9234;49.344;11.120;2023-05-07T04:08:37;3.40;;;2.95;;
18217;SDS011;9234;49.344;11.120;2023-05-07T04:11:06;5.38;;;3.00;;
18217;SDS011;9234;49.344;11.120;2023-05-07T04:13:36;3.53;;;2.85;;
18217;SDS011;9234;49.344;11.120;2023-05-07T04:16:06;5.43;;;3.78;;
18217;SDS011;9234;49.344;11.120;2023-05-07T04:18:36;3.88;;;2.92;;
18217;SDS011;9234;49.344;11.120;2023-05-07T04:21:06;4.40;;;3.30;;
18217;SDS011;9234;49.344;11.120;2023-05-07T04:23:42;3.47;;;3.13;;
18217;SDS011;9234;49.344;11.120;2023-05-07T04:26:12;4.13;;;2.83;;
18217;SDS011;9234;49.344;11.120;2023-05-07T04:28:43;3.50;;;3.20;;
18217;SDS011;9234;49.344;11.120;2023-05-07T04:31:11;4.03;;;3.47;;
18217;SDS011;9234;49.344;11.120;2023-05-07T04:33:40;7.85;;;3.55;;
18217;SDS011;9234;49.344;11.120;2023-05-07T04:36:12;5.63;;;3.20;;
18217;SDS011;9234;49.344;11.120;2023-05-07T04:38:49;3.55;;;3.25;;
18217;SDS011;9234;49.344;11.120;2023-05-07T04:41:19;4.97;;;3.57;;
18217;SDS011;9234;49.344;11.120;2023-05-07T04:43:48;3.55;;;3.25;;
18217;SDS011;9234;49.344;11.120;2023-05-07T04:46:18;4.22;;;3.75;;
18217;SDS011;9234;49.344;11.120;2023-05-07T04:48:48;4.20;;;3.75;;
18217;SDS011;9234;49.344;11.120;2023-05-07T04:51:18;6.20;;;4.73;;
18217;SDS011;9234;49.344;11.120;2023-05-07T04:53:46;4.50;;;3.83;;
18217;SDS011;9234;49.344;11.120;2023-05-07T04:56:15;3.85;;;3.45;;
18217;SDS011;9234;49.344;11.120;2023-05-07T04:58:45;5.07;;;3.50;;
18217;SDS011;9234;49.344;11.120;2023-05-07T05:01:16;4.75;;;4.07;;
18217;SDS011;9234;49.344;11.120;2023-05-07T05:03:44;7.03;;;4.32;;
18217;SDS011;9234;49.344;11.120;2023-05-07T05:06:13;4.78;;;4.10;;
18217;SDS011;9234;49.344;11.120;2023-05-07T05:08:42;6.55;;;3.75;;
18217;SDS011;9234;49.344;11.120;2023-05-07T05:11:11;5.25;;;3.92;;
18217;SDS011;9234;49.344;11.120;2023-05-07T05:13:39;5.35;;;4.40;;
18217;SDS011;9234;49.344;11.120;2023-05-07T05:16:13;6.05;;;3.92;;
18217;SDS011;9234;49.344;11.120;2023-05-07T05:18:41;5.35;;;4.60;;
18217;SDS011;9234;49.344;11.120;2023-05-07T05:21:11;5.43;;;3.72;;
18217;SDS011;9234;49.344;11.120;2023-05-07T05:23:42;4.43;;;3.83;;
18217;SDS011;9234;49.344;11.120;2023-05-07T05:26:16;4.60;;;4.00;;
18217;SDS011;9234;49.344;11.120;2023-05-07T05:28:44;5.40;;;4.72;;
18217;SDS011;9234;49.344;11.120;2023-05-07T05:31:15;3.67;;;3.38;;
18217;SDS011;9234;49.344;11.120;2023-05-07T05:33:44;5.75;;;4.30;;
18217;SDS011;9234;49.344;11.120;2023-05-07T05:36:12;6.88;;;5.30;;
18217;SDS011;9234;49.344;11.120;2023-05-07T05:38:44;5.65;;;4.47;;
18217;SDS011;9234;49.344;11.120;2023-05-07T05:41:13;5.07;;;4.57;;
18217;SDS011;9234;49.344;11.120;2023-05-07T05:43:41;4.55;;;3.83;;
18217;SDS011;9234;49.344;11.120;2023-05-07T05:46:09;4.97;;;4.57;;
18217;SDS011;9234;49.344;11.120;2023-05-07T05:48:38;5.57;;;5.07;;
18217;SDS011;9234;49.344;11.120;2023-05-07T05:51:07;5.78;;;5.22;;
18217;SDS011;9234;49.344;11.120;2023-05-07T05:53:35;6.25;;;5.72;;
18217;SDS011;9234;49.344;11.120;2023-05-07T05:56:06;6.47;;;5.88;;
18217;SDS011;9234;49.344;11.120;2023-05-07T05:58:37;5.78;;;5.10;;
18217;SDS011;9234;49.344;11.120;2023-05-07T06:01:06;8.60;;;5.82;;
18217;SDS011;9234;49.344;11.120;2023-05-07T06:03:36;6.30;;;5.70;;
18217;SDS011;9234;49.344;11.120;2023-05-07T06:06:10;8.40;;;6.10;;
18217;SDS011;9234;49.344;11.120;2023-05-07T06:08:41;6.85;;;6.25;;
18217;SDS011;9234;49.344;11.120;2023-05-07T06:11:14;6.57;;;5.90;;
18217;SDS011;9234;49.344;11.120;2023-05-07T06:13:44;6.47;;;5.75;;
18217;SDS011;9234;49.344;11.120;2023-05-07T06:16:13;6.57;;;5.97;;
18217;SDS011;9234;49.344;11.120;2023-05-07T06:18:42;6.40;;;5.78;;
18217;SDS011;9234;49.344;11.120;2023-05-07T06:21:13;9.05;;;6.63;;
18217;SDS011;9234;49.344;11.120;2023-05-07T06:23:41;7.00;;;6.28;;
18217;SDS011;9234;49.344;11.120;2023-05-07T06:26:10;7.65;;;5.97;;
18217;SDS011;9234;49.344;11.120;2023-05-07T06:28:42;6.75;;;6.10;;
18217;SDS011;9234;49.344;11.120;2023-05-07T06:31:12;7.32;;;6.57;;
18217;SDS011;9234;49.344;11.120;2023-05-07T06:33:46;6.35;;;5.85;;
18217;SDS011;9234;49.344;11.120;2023-05-07T06:36:15;7.75;;;6.35;;
18217;SDS011;9234;49.344;11.120;2023-05-07T06:38:45;7.20;;;6.50;;
18217;SDS011;9234;49.344;11.120;2023-05-07T06:41:14;7.78;;;6.75;;
18217;SDS011;9234;49.344;11.120;2023-05-07T06:43:44;7.85;;;6.05;;
18217;SDS011;9234;49.344;11.120;2023-05-07T06:46:51;7.38;;;6.68;;
18217;SDS011;9234;49.344;11.120;2023-05-07T06:49:19;7.18;;;6.47;;
18217;SDS011;9234;49.344;11.120;2023-05-07T06:51:48;7.15;;;6.45;;
18217;SDS011;9234;49.344;11.120;2023-05-07T06:54:17;8.68;;;6.07;;
18217;SDS011;9234;49.344;11.120;2023-05-07T06:56:46;7.25;;;6.32;;
18217;SDS011;9234;49.344;11.120;2023-05-07T06:59:17;8.40;;;6.15;;
18217;SDS011;9234;49.344;11.120;2023-05-07T07:01:45;7.97;;;7.28;;
18217;SDS011;9234;49.344;11.120;2023-05-07T07:04:14;6.95;;;6.25;;
18217;SDS011;9234;49.344;11.120;2023-05-07T07:06:47;7.82;;;6.57;;
18217;SDS011;9234;49.344;11.120;2023-05-07T07:09:16;7.68;;;6.18;;
18217;SDS011;9234;49.344;11.120;2023-05-07T07:11:44;6.97;;;6.18;;
18217;SDS011;9234;49.344;11.120;2023-05-07T07:14:12;7.50;;;6.05;;
18217;SDS011;9234;49.344;11.120;2023-05-07T07:16:48;7.30;;;6.55;;
18217;SDS011;9234;49.344;11.120;2023-05-07T07:19:18;6.47;;;5.88;;
18217;SDS011;9234;49.344;11.120;2023-05-07T07:21:49;6.05;;;5.45;;
18217;SDS011;9234;49.344;11.120;2023-05-07T07:24:17;6.95;;;6.30;;
18217;SDS011;9234;49.344;11.120;2023-05-07T07:26:51;6.85;;;6.25;;
18217;SDS011;9234;49.344;11.120;2023-05-07T07:29:22;6.32;;;5.72;;
18217;SDS011;9234;49.344;11.120;2023-05-07T07:31:54;6.72;;;6.13;;
18217;SDS011;9234;49.344;11.120;2023-05-07T07:34:24;5.72;;;5.22;;
18217;SDS011;9234;49.344;11.120;2023-05-07T07:36:52;6.20;;;5.32;;
18217;SDS011;9234;49.344;11.120;2023-05-07T07:39:20;7.70;;;5.70;;
18217;SDS011;9234;49.344;11.120;2023-05-07T07:41:52;6.22;;;5.63;;
18217;SDS011;9234;49.344;11.120;2023-05-07T07:44:21;6.63;;;5.90;;
18217;SDS011;9234;49.344;11.120;2023-05-07T07:46:56;6.88;;;4.88;;
18217;SDS011;9234;49.344;11.120;2023-05-07T07:49:27;5.40;;;4.90;;
18217;SDS011;9234;49.344;11.120;2023-05-07T07:51:58;5.45;;;4.93;;
18217;SDS011;9234;49.344;11.120;2023-05-07T07:54:28;5.97;;;5.18;;
18217;SDS011;9234;49.344;11.120;2023-05-07T07:56:57;5.72;;;4.55;;
18217;SDS011;9234;49.344;11.120;2023-05-07T07:59:25;5.70;;;5.20;;
18217;SDS011;9234;49.344;11.120;2023-05-07T08:01:54;6.97;;;5.10;;
18217;SDS011;9234;49.344;11.120;2023-05-07T08:04:26;7.50;;;5.60;;
18217;SDS011;9234;49.344;11.120;2023-05-07T08:06:56;5.47;;;4.97;;
18217;SDS011;9234;49.344;11.120;2023-05-07T08:09:25;6.82;;;4.65;;
18217;SDS011;9234;49.344;11.120;2023-05-07T08:11:54;6.15;;;4.38;;
18217;SDS011;9234;49.344;11.120;2023-05-07T08:14:23;9.43;;;5.38;;
18217;SDS011;9234;49.344;11.120;2023-05-07T08:16:51;5.57;;;5.00;;
18217;SDS011;9234;49.344;11.120;2023-05-07T08:19:20;6.93;;;4.70;;
18217;SDS011;9234;49.344;11.120;2023-05-07T08:21:51;4.72;;;4.32;;
18217;SDS011;9234;49.344;11.120;2023-05-07T08:24:21;6.03;;;5.45;;
18217;SDS011;9234;49.344;11.120;2023-05-07T08:26:49;5.22;;;4.70;;
18217;SDS011;9234;49.344;11.120;2023-05-07T08:29:18;4.57;;;4.10;;
18217;SDS011;9234;49.344;11.120;2023-05-07T08:31:46;4.80;;;4.38;;
18217;SDS011;9234;49.344;11.120;2023-05-07T08:34:14;5.47;;;4.40;;
18217;SDS011;9234;49.344;11.120;2023-05-07T08:36:45;5.00;;;4.38;;
18217;SDS011;9234;49.344;11.120;2023-05-07T08:39:19;4.50;;;4.15;;
18217;SDS011;9234;49.344;11.120;2023-05-07T08:41:49;4.50;;;4.10;;
18217;SDS011;9234;49.344;11.120;2023-05-07T08:44:25;4.85;;;4.25;;
18217;SDS011;9234;49.344;11.120;2023-05-07T08:46:57;5.28;;;4.63;;
18217;SDS011;9234;49.344;11.120;2023-05-07T08:49:30;48.63;;;8.40;;
18217;SDS011;9234;49.344;11.120;2023-05-07T08:51:59;4.90;;;4.40;;
18217;SDS011;9234;49.344;11.120;2023-05-07T08:54:29;5.03;;;4.47;;
18217;SDS011;9234;49.344;11.120;2023-05-07T08:57:00;5.80;;;4.15;;
18217;SDS011;9234;49.344;11.120;2023-05-07T08:59:29;4.50;;;4.10;;
18217;SDS011;9234;49.344;11.120;2023-05-07T09:01:58;10.75;;;4.95;;
18217;SDS011;9234;49.344;11.120;2023-05-07T09:04:27;4.57;;;3.78;;
18217;SDS011;9234;49.344;11.120;2023-05-07T09:06:55;5.80;;;4.25;;
18217;SDS011;9234;49.344;11.120;2023-05-07T09:09:31;4.72;;;4.25;;
18217;SDS011;9234;49.344;11.120;2023-05-07T09:12:03;4.68;;;4.28;;
18217;SDS011;9234;49.344;11.120;2023-05-07T09:14:33;5.50;;;4.05;;
18217;SDS011;9234;49.344;11.120;2023-05-07T09:17:02;5.47;;;4.20;;
18217;SDS011;9234;49.344;11.120;2023-05-07T09:19:31;4.40;;;3.58;;
18217;SDS011;9234;49.344;11.120;2023-05-07T09:22:02;4.28;;;3.70;;
18217;SDS011;9234;49.344;11.120;2023-05-07T09:24:47;5.47;;;3.72;;
18217;SDS011;9234;49.344;11.120;2023-05-07T09:27:18;4.10;;;3.70;;
18217;SDS011;9234;49.344;11.120;2023-05-07T09:29:47;6.03;;;4.10;;
18217;SDS011;9234;49.344;11.120;2023-05-07T09:32:15;4.45;;;3.40;;
18217;SDS011;9234;49.344;11.120;2023-05-07T09:34:44;4.13;;;3.72;;
18217;SDS011;9234;49.344;11.120;2023-05-07T09:37:15;3.40;;;2.90;;
18217;SDS011;9234;49.344;11.120;2023-05-07T09:39:45;3.15;;;2.95;;
18217;SDS011;9234;49.344;11.120;2023-05-07T09:42:22;3.75;;;3.45;;
18217;SDS011;9234;49.344;11.120;2023-05-07T09:44:55;3.63;;;3.33;;
18217;SDS011;9234;49.344;11.120;2023-05-07T09:47:27;5.22;;;3.35;;
18217;SDS011;9234;49.344;11.120;2023-05-07T09:50:03;3.78;;;3.08;;
18217;SDS011;9234;49.344;11.120;2023-05-07T09:52:38;3.58;;;3.28;;
18217;SDS011;9234;49.344;11.120;2023-05-07T09:55:11;3.67;;;3.38;;
18217;SDS011;9234;49.344;11.120;2023-05-07T09:57:41;3.55;;;3.25;;
18217;SDS011;9234;49.344;11.120;2023-05-07T10:00:12;4.30;;;3.40;;
18217;SDS011;9234;49.344;11.120;2023-05-07T10:02:48;4.07;;;3.33;;
18217;SDS011;9234;49.344;11.120;2023-05-07T10:05:31;3.05;;;2.83;;
18217;SDS011;9234;49.344;11.120;2023-05-07T10:08:01;5.20;;;3.63;;
18217;SDS011;9234;49.344;11.120;2023-05-07T10:10:34;3.00;;;2.80;;
18217;SDS011;9234;49.344;11.120;2023-05-07T10:13:05;4.38;;;3.28;;
18217;SDS011;9234;49.344;11.120;2023-05-07T10:15:39;3.83;;;3.13;;
18217;SDS011;9234;49.344;11.120;2023-05-07T10:18:09;3.50;;;2.80;;
18217;SDS011;9234;49.344;11.120;2023-05-07T10:20:40;4.85;;;2.55;;
18217;SDS011;9234;49.344;11.120;2023-05-07T10:23:13;3.40;;;2.75;;
18217;SDS011;9234;49.344;11.120;2023-05-07T10:25:48;2.67;;;2.45;;
18217;SDS011;9234;49.344;11.120;2023-05-07T10:28:22;2.90;;;2.70;;
18217;SDS011;9234;49.344;11.120;2023-05-07T10:30:58;2.83;;;2.63;;
18217;SDS011;9234;49.344;11.120;2023-05-07T10:33:42;3.63;;;2.58;;
18217;SDS011;9234;49.344;11.120;2023-05-07T10:36:15;5.43;;;2.58;;
18217;SDS011;9234;49.344;11.120;2023-05-07T10:38:46;3.13;;;2.13;;
18217;SDS011;9234;49.344;11.120;2023-05-07T10:41:16;2.70;;;2.28;;
18217;SDS011;9234;49.344;11.120;2023-05-07T10:43:46;3.13;;;2.55;;
18217;SDS011;9234;49.344;11.120;2023-05-07T10:46:25;3.35;;;2.50;;
18217;SDS011;9234;49.344;11.120;2023-05-07T10:49:11;4.53;;;2.33;;
18217;SDS011;9234;49.344;11.120;2023-05-07T10:51:45;3.15;;;2.42;;
18217;SDS011;9234;49.344;11.120;2023-05-07T10:58:24;2.72;;;1.80;;
18217;SDS011;9234;49.344;11.120;2023-05-07T11:04:23;3.30;;;2.60;;
18217;SDS011;9234;49.344;11.120;2023-05-07T11:07:24;3.63;;;1.80;;
18217;SDS011;9234;49.344;11.120;2023-05-07T11:10:08;3.90;;;2.00;;
18217;SDS011;9234;49.344;11.120;2023-05-07T11:12:54;3.22;;;2.20;;
18217;SDS011;9234;49.344;11.120;2023-05-07T11:15:42;3.38;;;2.53;;
18217;SDS011;9234;49.344;11.120;2023-05-07T11:18:21;3.08;;;2.38;;
18217;SDS011;9234;49.344;11.120;2023-05-07T11:20:52;4.45;;;2.58;;
18217;SDS011;9234;49.344;11.120;2023-05-07T11:23:55;2.90;;;1.88;;
18217;SDS011;9234;49.344;11.120;2023-05-07T11:26:41;3.13;;;2.05;;
18217;SDS011;9234;49.344;11.120;2023-05-07T11:29:16;2.25;;;2.13;;
18217;SDS011;9234;49.344;11.120;2023-05-07T11:31:53;1.95;;;1.83;;
18217;SDS011;9234;49.344;11.120;2023-05-07T11:34:28;2.80;;;1.88;;
18217;SDS011;9234;49.344;11.120;2023-05-07T11:36:58;2.72;;;1.88;;
18217;SDS011;9234;49.344;11.120;2023-05-07T11:39:45;2.10;;;1.95;;
18217;SDS011;9234;49.344;11.120;2023-05-07T11:42:27;2.60;;;2.25;;
18217;SDS011;9234;49.344;11.120;2023-05-07T11:44:56;1.70;;;1.52;;
18217;SDS011;9234;49.344;11.120;2023-05-07T11:47:26;3.97;;;2.33;;
18217;SDS011;9234;49.344;11.120;2023-05-07T11:50:02;4.60;;;2.17;;
18217;SDS011;9234;49.344;11.120;2023-05-07T11:52:33;6.13;;;1.98;;
18217;SDS011;9234;49.344;11.120;2023-05-07T11:55:03;3.85;;;2.10;;
18217;SDS011;9234;49.344;11.120;2023-05-07T11:57:32;2.30;;;1.77;;
18217;SDS011;9234;49.344;11.120;2023-05-07T12:00:02;1.70;;;1.60;;
18217;SDS011;9234;49.344;11.120;2023-05-07T12:02:41;1.90;;;1.65;;
18217;SDS011;9234;49.344;11.120;2023-05-07T12:05:10;2.42;;;1.90;;
18217;SDS011;9234;49.344;11.120;2023-05-07T12:07:39;3.67;;;1.67;;
18217;SDS011;9234;49.344;11.120;2023-05-07T12:10:08;4.18;;;1.88;;
18217;SDS011;9234;49.344;11.120;2023-05-07T12:12:39;3.70;;;1.95;;
18217;SDS011;9234;49.344;11.120;2023-05-07T12:15:08;2.03;;;1.60;;
18217;SDS011;9234;49.344;11.120;2023-05-07T12:17:37;2.72;;;1.60;;
18217;SDS011;9234;49.344;11.120;2023-05-07T12:20:09;3.17;;;1.50;;
18217;SDS011;9234;49.344;11.120;2023-05-07T12:22:38;1.90;;;1.63;;
18217;SDS011;9234;49.344;11.120;2023-05-07T12:25:06;2.25;;;1.70;;
18217;SDS011;9234;49.344;11.120;2023-05-07T12:27:36;2.25;;;1.48;;
18217;SDS011;9234;49.344;11.120;2023-05-07T12:30:08;4.10;;;1.65;;
18217;SDS011;9234;49.344;11.120;2023-05-07T12:32:38;1.50;;;1.40;;
18217;SDS011;9234;49.344;11.120;2023-05-07T12:35:08;1.48;;;1.38;;
18217;SDS011;9234;49.344;11.120;2023-05-07T12:37:37;1.70;;;1.60;;
18217;SDS011;9234;49.344;11.120;2023-05-07T12:40:06;1.63;;;1.52;;
18217;SDS011;9234;49.344;11.120;2023-05-07T12:42:37;1.83;;;1.50;;
18217;SDS011;9234;49.344;11.120;2023-05-07T12:45:09;1.55;;;1.45;;
18217;SDS011;9234;49.344;11.120;2023-05-07T12:47:38;3.25;;;1.52;;
18217;SDS011;9234;49.344;11.120;2023-05-07T12:50:07;1.75;;;1.63;;
18217;SDS011;9234;49.344;11.120;2023-05-07T12:52:37;1.92;;;1.80;;
18217;SDS011;9234;49.344;11.120;2023-05-07T12:55:07;1.80;;;1.70;;
18217;SDS011;9234;49.344;11.120;2023-05-07T12:57:40;2.45;;;1.73;;
18217;SDS011;9234;49.344;11.120;2023-05-07T13:00:10;2.20;;;1.73;;
18217;SDS011;9234;49.344;11.120;2023-05-07T13:02:39;2.22;;;1.80;;
18217;SDS011;9234;49.344;11.120;2023-05-07T13:05:12;2.45;;;1.70;;
18217;SDS011;9234;49.344;11.120;2023-05-07T13:07:40;2.30;;;2.10;;
18217;SDS011;9234;49.344;11.120;2023-05-07T13:10:20;1.77;;;1.67;;
18217;SDS011;9234;49.344;11.120;2023-05-07T13:12:49;2.80;;;1.90;;
18217;SDS011;9234;49.344;11.120;2023-05-07T13:15:19;2.15;;;2.00;;
18217;SDS011;9234;49.344;11.120;2023-05-07T13:17:48;2.30;;;1.88;;
18217;SDS011;9234;49.344;11.120;2023-05-07T13:20:18;2.38;;;2.08;;
18217;SDS011;9234;49.344;11.120;2023-05-07T13:22:46;1.67;;;1.50;;
18217;SDS011;9234;49.344;11.120;2023-05-07T13:25:14;2.03;;;1.70;;
18217;SDS011;9234;49.344;11.120;2023-05-07T13:27:42;3.10;;;1.58;;
18217;SDS011;9234;49.344;11.120;2023-05-07T13:30:13;1.90;;;1.80;;
18217;SDS011;9234;49.344;11.120;2023-05-07T13:32:41;2.42;;;2.22;;
18217;SDS011;9234;49.344;11.120;2023-05-07T13:35:10;2.53;;;1.98;;
18217;SDS011;9234;49.344;11.120;2023-05-07T13:37:40;2.20;;;2.00;;
18217;SDS011;9234;49.344;11.120;2023-05-07T13:40:08;2.05;;;1.95;;
18217;SDS011;9234;49.344;11.120;2023-05-07T13:42:38;3.22;;;2.15;;
18217;SDS011;9234;49.344;11.120;2023-05-07T13:45:08;1.60;;;1.50;;
18217;SDS011;9234;49.344;11.120;2023-05-07T13:47:40;3.05;;;1.90;;
18217;SDS011;9234;49.344;11.120;2023-05-07T13:50:09;1.80;;;1.70;;
18217;SDS011;9234;49.344;11.120;2023-05-07T13:52:41;3.13;;;2.83;;
18217;SDS011;9234;49.344;11.120;2023-05-07T13:55:12;5.63;;;5.13;;
18217;SDS011;9234;49.344;11.120;2023-05-07T13:57:40;2.45;;;2.25;;
18217;SDS011;9234;49.344;11.120;2023-05-07T14:00:09;2.05;;;1.67;;
18217;SDS011;9234;49.344;11.120;2023-05-07T14:02:42;2.13;;;1.67;;
18217;SDS011;9234;49.344;11.120;2023-05-07T14:05:10;4.10;;;1.92;;
18217;SDS011;9234;49.344;11.120;2023-05-07T14:07:39;4.68;;;1.67;;
18217;SDS011;9234;49.344;11.120;2023-05-07T14:10:09;1.80;;;1.70;;
18217;SDS011;9234;49.344;11.120;2023-05-07T14:12:39;2.63;;;2.05;;
18217;SDS011;9234;49.344;11.120;2023-05-07T14:15:09;4.45;;;2.17;;
18217;SDS011;9234;49.344;11.120;2023-05-07T14:17:37;3.08;;;1.75;;
18217;SDS011;9234;49.344;11.120;2023-05-07T14:20:06;3.25;;;1.75;;
18217;SDS011;9234;49.344;11.120;2023-05-07T14:22:37;3.22;;;2.05;;
18217;SDS011;9234;49.344;11.120;2023-05-07T14:25:08;2.65;;;2.00;;
18217;SDS011;9234;49.344;11.120;2023-05-07T14:27:37;2.33;;;1.77;;
18217;SDS011;9234;49.344;11.120;2023-05-07T14:30:06;2.30;;;2.10;;
18217;SDS011;9234;49.344;11.120;2023-05-07T14:32:35;2.78;;;1.88;;
18217;SDS011;9234;49.344;11.120;2023-05-07T14:35:04;2.92;;;1.90;;
18217;SDS011;9234;49.344;11.120;2023-05-07T14:37:33;2.15;;;2.00;;
18217;SDS011;9234;49.344;11.120;2023-05-07T14:40:01;2.75;;;2.15;;
18217;SDS011;9234;49.344;11.120;2023-05-07T14:42:31;2.70;;;2.00;;
18217;SDS011;9234;49.344;11.120;2023-05-07T14:44:59;4.40;;;2.45;;
18217;SDS011;9234;49.344;11.120;2023-05-07T14:47:27;4.45;;;2.47;;
18217;SDS011;9234;49.344;11.120;2023-05-07T14:49:55;4.00;;;2.40;;
18217;SDS011;9234;49.344;11.120;2023-05-07T14:52:27;3.25;;;2.28;;
18217;SDS011;9234;49.344;11.120;2023-05-07T14:54:55;2.05;;;1.95;;
18217;SDS011;9234;49.344;11.120;2023-05-07T14:57:23;4.18;;;2.72;;
18217;SDS011;9234;49.344;11.120;2023-05-07T14:59:53;2.90;;;2.70;;
18217;SDS011;9234;49.344;11.120;2023-05-07T15:02:21;3.33;;;3.10;;
18217;SDS011;9234;49.344;11.120;2023-05-07T15:04:50;3.03;;;2.72;;
18217;SDS011;9234;49.344;11.120;2023-05-07T15:07:18;3.20;;;2.92;;
18217;SDS011;9234;49.344;11.120;2023-05-07T15:09:46;3.78;;;2.60;;
18217;SDS011;9234;49.344;11.120;2023-05-07T15:12:14;2.60;;;2.40;;
18217;SDS011;9234;49.344;11.120;2023-05-07T15:14:43;2.50;;;2.30;;
18217;SDS011;9234;49.344;11.120;2023-05-07T15:17:13;3.08;;;2.70;;